createdAt,value
2019-03-19T00:00:41.969Z,12.73
2019-03-19T00:03:09.928Z,12.95
2019-03-19T00:05:37.931Z,14.10
2019-03-19T00:08:05.900Z,15.43
2019-03-19T00:10:33.884Z,12.88
2019-03-19T00:13:01.889Z,13.08
2019-03-19T00:15:29.852Z,9.40
2019-03-19T00:17:57.829Z,8.15
2019-03-19T00:20:25.785Z,7.47
2019-03-19T00:22:53.761Z,8.08
2019-03-19T00:25:29.990Z,9.03
2019-03-19T00:27:51.440Z,10.15
2019-03-19T00:30:19.980Z,12.43
2019-03-19T00:32:47.954Z,10.78
2019-03-19T00:35:15.922Z,9.90
2019-03-19T00:37:43.881Z,9.15
2019-03-19T00:40:12.473Z,8.75
2019-03-19T00:42:40.446Z,9.18
2019-03-19T00:45:10.039Z,9.78
2019-03-19T00:47:38.019Z,10.75
2019-03-19T00:50:07.635Z,10.43
2019-03-19T00:52:35.622Z,9.05
2019-03-19T00:55:04.722Z,9.50
2019-03-19T00:57:32.693Z,9.05
2019-03-19T01:00:00.676Z,8.95
2019-03-19T01:02:28.659Z,9.50
2019-03-19T01:04:56.619Z,9.75
2019-03-19T01:07:24.596Z,9.75
2019-03-19T01:09:52.564Z,10.10
2019-03-19T01:12:20.567Z,9.95
2019-03-19T01:14:48.528Z,9.70
2019-03-19T01:17:16.501Z,9.98
2019-03-19T01:19:44.467Z,8.68
2019-03-19T01:22:13.195Z,9.38
2019-03-19T01:24:41.169Z,9.93
2019-03-19T01:27:09.192Z,10.80
2019-03-19T01:29:37.231Z,10.55
2019-03-19T01:32:05.208Z,10.48
2019-03-19T01:34:33.192Z,11.57
2019-03-19T01:37:01.157Z,9.48
2019-03-19T01:39:29.208Z,9.10
2019-03-19T01:41:57.175Z,10.00
2019-03-19T01:44:25.285Z,11.00
2019-03-19T01:46:53.300Z,12.78
2019-03-19T01:49:21.272Z,14.10
2019-03-19T01:51:49.262Z,14.65
2019-03-19T01:54:17.236Z,13.60
2019-03-19T01:56:45.203Z,15.25
2019-03-19T01:59:13.186Z,15.23
2019-03-19T02:01:41.160Z,13.83
2019-03-19T02:04:09.128Z,14.73
2019-03-19T02:06:37.103Z,15.43
2019-03-19T02:09:05.911Z,15.75
2019-03-19T02:11:33.942Z,15.63
2019-03-19T02:14:01.912Z,16.75
2019-03-19T02:16:29.896Z,15.48
2019-03-19T02:18:57.867Z,16.07
2019-03-19T02:21:25.859Z,17.32
2019-03-19T02:23:53.821Z,17.27
2019-03-19T02:26:21.820Z,18.70
2019-03-19T02:28:49.830Z,18.92
2019-03-19T02:31:17.841Z,17.20
2019-03-19T02:33:45.808Z,17.50
2019-03-19T02:36:13.784Z,19.07
2019-03-19T02:38:41.752Z,27.75
2019-03-19T02:41:09.738Z,27.35
2019-03-19T02:43:37.711Z,48.78
2019-03-19T02:46:05.698Z,25.27
2019-03-19T02:48:33.708Z,52.48
2019-03-19T02:51:01.675Z,30.37
2019-03-19T02:53:29.806Z,19.55
2019-03-19T02:55:57.888Z,21.00
2019-03-19T02:58:25.876Z,25.82
2019-03-19T03:00:53.861Z,24.30
2019-03-19T03:03:21.822Z,26.70
2019-03-19T03:05:49.837Z,23.45
2019-03-19T03:08:17.815Z,39.65
2019-03-19T03:10:45.797Z,37.55
2019-03-19T03:13:13.772Z,28.20
2019-03-19T03:15:41.760Z,22.40
2019-03-19T03:18:09.727Z,23.70
2019-03-19T03:20:37.711Z,24.40
2019-03-19T03:23:05.688Z,24.15
2019-03-19T03:25:33.642Z,23.90
2019-03-19T03:28:01.616Z,27.82
2019-03-19T03:30:29.593Z,30.60
2019-03-19T03:32:57.648Z,24.43
2019-03-19T03:35:25.614Z,29.18
2019-03-19T03:37:53.582Z,37.55
2019-03-19T03:40:21.566Z,52.67
2019-03-19T03:42:49.542Z,78.60
2019-03-19T03:45:18.013Z,40.78
2019-03-19T03:47:45.968Z,36.17
2019-03-19T03:50:15.567Z,25.85
2019-03-19T03:52:43.541Z,21.75
2019-03-19T03:55:12.087Z,23.38
2019-03-19T03:57:40.077Z,27.55
2019-03-19T04:00:23.527Z,38.33
2019-03-19T04:02:51.513Z,27.27
2019-03-19T04:05:19.494Z,28.07
2019-03-19T04:07:47.453Z,21.95
2019-03-19T04:10:17.128Z,21.95
2019-03-19T04:12:45.105Z,24.98
2019-03-19T04:15:13.544Z,22.15
2019-03-19T04:17:41.529Z,18.00
2019-03-19T04:20:11.137Z,19.87
2019-03-19T04:22:39.113Z,23.42
2019-03-19T04:25:10.176Z,24.98
2019-03-19T04:27:40.376Z,21.45
2019-03-19T04:30:09.121Z,24.45
2019-03-19T04:32:37.284Z,42.70
2019-03-19T04:35:05.920Z,27.00
2019-03-19T04:37:33.884Z,32.93
2019-03-19T04:40:01.873Z,41.37
2019-03-19T04:42:29.843Z,61.13
2019-03-19T04:44:57.817Z,53.95
2019-03-19T04:47:25.817Z,25.82
2019-03-19T04:49:53.780Z,22.82
2019-03-19T04:52:21.752Z,23.30
2019-03-19T04:54:49.728Z,19.95
2019-03-19T04:57:26.288Z,23.42
2019-03-19T04:59:47.396Z,23.75
2019-03-19T05:02:15.372Z,25.25
2019-03-19T05:04:43.344Z,26.12
2019-03-19T05:07:11.320Z,24.98
2019-03-19T05:09:39.290Z,27.37
2019-03-19T05:12:07.271Z,38.08
2019-03-19T05:14:35.268Z,31.68
2019-03-19T05:17:03.239Z,26.82
2019-03-19T05:19:31.236Z,29.63
2019-03-19T05:21:59.208Z,23.27
2019-03-19T05:24:27.347Z,21.25
2019-03-19T05:26:55.332Z,23.55
2019-03-19T05:29:23.292Z,24.00
2019-03-19T05:31:51.274Z,28.65
2019-03-19T05:34:19.245Z,33.73
2019-03-19T05:36:47.211Z,32.58
2019-03-19T05:39:15.197Z,29.92
2019-03-19T05:41:43.171Z,24.70
2019-03-19T05:44:11.155Z,22.80
2019-03-19T05:46:39.197Z,28.25
2019-03-19T05:49:07.468Z,26.95
2019-03-19T05:51:35.441Z,23.25
2019-03-19T05:54:03.439Z,22.05
2019-03-19T05:56:31.390Z,22.95
2019-03-19T05:58:59.355Z,21.33
2019-03-19T06:01:27.431Z,17.32
2019-03-19T06:03:55.399Z,21.27
2019-03-19T06:06:23.378Z,22.58
2019-03-19T06:08:51.352Z,25.32
2019-03-19T06:11:19.355Z,21.85
2019-03-19T06:13:47.315Z,20.88
2019-03-19T06:16:15.299Z,22.77
2019-03-19T06:18:43.264Z,16.80
2019-03-19T06:21:11.253Z,20.25
2019-03-19T06:23:39.257Z,18.98
2019-03-19T06:26:07.271Z,18.45
2019-03-19T06:28:35.738Z,17.70
2019-03-19T06:31:03.872Z,15.88
2019-03-19T06:33:31.841Z,14.53
2019-03-19T06:35:59.807Z,14.03
2019-03-19T06:38:27.783Z,15.00
2019-03-19T06:40:55.764Z,15.18
2019-03-19T06:43:23.738Z,13.88
2019-03-19T06:45:51.697Z,13.65
2019-03-19T06:48:19.673Z,12.13
2019-03-19T06:50:47.703Z,11.15
2019-03-19T06:53:15.673Z,10.90
2019-03-19T06:55:43.641Z,10.58
2019-03-19T06:58:11.656Z,8.45
2019-03-19T07:00:39.663Z,8.68
2019-03-19T07:03:07.649Z,7.17
2019-03-19T07:05:35.616Z,6.83
2019-03-19T07:08:03.635Z,6.90
2019-03-19T07:10:31.603Z,6.60
2019-03-19T07:12:59.575Z,7.03
2019-03-19T07:15:27.543Z,6.12
2019-03-19T07:17:55.524Z,7.30
2019-03-19T07:20:26.603Z,6.92
2019-03-19T07:22:54.572Z,7.20
2019-03-19T07:25:22.555Z,6.30
2019-03-19T07:27:50.520Z,7.67
2019-03-19T07:30:27.647Z,6.40
2019-03-19T07:32:55.624Z,6.58
2019-03-19T07:35:23.579Z,5.65
2019-03-19T07:37:51.552Z,6.17
2019-03-19T07:40:19.520Z,6.72
2019-03-19T07:42:47.487Z,6.28
2019-03-19T07:45:15.931Z,5.30
2019-03-19T07:47:43.911Z,5.50
2019-03-19T07:50:13.160Z,5.42
2019-03-19T07:52:41.147Z,5.17
2019-03-19T07:55:09.284Z,4.95
2019-03-19T07:57:37.260Z,5.28
2019-03-19T08:00:09.768Z,5.85
2019-03-19T08:02:37.735Z,4.72
2019-03-19T08:05:07.373Z,5.30
2019-03-19T08:07:35.373Z,5.20
2019-03-19T08:10:04.414Z,5.62
2019-03-19T08:12:33.637Z,5.60
2019-03-19T08:15:01.935Z,4.90
2019-03-19T08:17:29.896Z,5.50
2019-03-19T08:19:57.880Z,5.45
2019-03-19T08:22:25.856Z,5.50
2019-03-19T08:24:53.836Z,5.40
2019-03-19T08:27:21.824Z,5.10
2019-03-19T08:29:49.788Z,5.20
2019-03-19T08:32:17.779Z,5.25
2019-03-19T08:34:45.740Z,5.72
2019-03-19T08:37:15.542Z,4.87
2019-03-19T08:39:43.424Z,5.55
2019-03-19T08:42:11.389Z,4.72
2019-03-19T08:44:39.376Z,4.50
2019-03-19T08:47:07.347Z,4.67
2019-03-19T08:49:35.316Z,5.30
2019-03-19T08:52:03.298Z,4.60
2019-03-19T08:54:32.525Z,4.53
2019-03-19T08:57:00.711Z,5.25
2019-03-19T08:59:28.691Z,4.42
2019-03-19T09:01:56.673Z,4.72
2019-03-19T09:04:24.759Z,4.92
2019-03-19T09:06:52.800Z,3.70
2019-03-19T09:09:20.835Z,4.15
2019-03-19T09:11:48.807Z,4.17
2019-03-19T09:14:16.783Z,3.27
2019-03-19T09:16:44.754Z,3.02
2019-03-19T09:19:12.735Z,3.00
2019-03-19T09:21:40.718Z,3.30
2019-03-19T09:24:08.680Z,3.52
2019-03-19T09:26:36.659Z,3.25
2019-03-19T09:29:04.637Z,2.70
2019-03-19T09:31:32.784Z,3.20
2019-03-19T09:34:00.751Z,3.10
2019-03-19T09:36:28.716Z,3.30
2019-03-19T09:38:56.711Z,3.33
2019-03-19T09:41:24.675Z,2.10
2019-03-19T09:43:53.662Z,2.58
2019-03-19T09:46:21.818Z,2.67
2019-03-19T09:48:49.788Z,2.08
2019-03-19T09:51:17.863Z,2.42
2019-03-19T09:53:45.832Z,2.75
2019-03-19T09:56:13.795Z,2.62
2019-03-19T09:58:41.775Z,2.37
2019-03-19T10:01:09.737Z,2.62
2019-03-19T10:03:37.727Z,2.65
2019-03-19T10:06:14.010Z,2.65
2019-03-19T10:08:35.380Z,2.20
2019-03-19T10:11:03.437Z,2.90
2019-03-19T10:13:31.435Z,2.52
2019-03-19T10:15:59.392Z,2.47
2019-03-19T10:18:27.364Z,2.37
2019-03-19T10:20:55.352Z,2.08
2019-03-19T10:23:23.305Z,3.05
2019-03-19T10:25:51.293Z,2.27
2019-03-19T10:28:19.248Z,2.40
2019-03-19T10:30:47.231Z,2.40
2019-03-19T10:33:16.098Z,2.40
2019-03-19T10:35:45.093Z,2.40
2019-03-19T10:38:13.067Z,2.70
2019-03-19T10:40:41.376Z,3.12
2019-03-19T10:43:09.372Z,2.50
2019-03-19T10:45:37.353Z,2.67
2019-03-19T10:48:05.350Z,2.37
2019-03-19T10:50:33.344Z,2.20
2019-03-19T10:53:01.303Z,2.17
2019-03-19T10:55:29.276Z,1.77
2019-03-19T10:57:57.239Z,2.40
2019-03-19T11:00:25.583Z,2.72
2019-03-19T11:02:53.549Z,2.52
2019-03-19T11:05:21.925Z,2.10
2019-03-19T11:07:49.951Z,2.15
2019-03-19T11:10:18.198Z,2.25
2019-03-19T11:12:46.178Z,2.12
2019-03-19T11:15:17.761Z,2.12
2019-03-19T11:17:45.731Z,2.17
2019-03-19T11:20:14.657Z,2.62
2019-03-19T11:22:42.632Z,2.67
2019-03-19T11:25:11.884Z,1.87
2019-03-19T11:27:39.847Z,2.05
2019-03-19T11:30:12.145Z,1.72
2019-03-19T11:32:40.120Z,2.60
2019-03-19T11:35:09.071Z,1.87
2019-03-19T11:37:37.057Z,2.17
2019-03-19T11:40:06.607Z,1.92
2019-03-19T11:42:34.580Z,2.00
2019-03-19T11:45:02.550Z,2.02
2019-03-19T11:47:30.523Z,2.12
2019-03-19T11:49:58.497Z,1.75
2019-03-19T11:52:26.463Z,1.77
2019-03-19T11:54:54.420Z,1.87
2019-03-19T11:57:22.404Z,2.62
2019-03-19T11:59:50.368Z,1.90
2019-03-19T12:02:25.751Z,2.08
2019-03-19T12:04:48.024Z,2.02
2019-03-19T12:07:16.007Z,2.10
2019-03-19T12:09:43.968Z,2.10
2019-03-19T12:12:11.951Z,2.27
2019-03-19T12:14:39.917Z,2.12
2019-03-19T12:17:07.883Z,2.00
2019-03-19T12:19:35.871Z,2.05
2019-03-19T12:22:03.836Z,2.00
2019-03-19T12:24:32.805Z,1.67
2019-03-19T12:27:00.953Z,2.10
2019-03-19T12:29:28.930Z,1.87
2019-03-19T12:31:56.925Z,1.80
2019-03-19T12:34:24.915Z,2.02
2019-03-19T12:36:52.880Z,2.30
2019-03-19T12:39:20.839Z,2.22
2019-03-19T12:41:48.828Z,1.98
2019-03-19T12:44:16.792Z,2.55
2019-03-19T12:46:44.752Z,2.17
2019-03-19T12:49:12.728Z,2.05
2019-03-19T12:51:40.768Z,2.30
2019-03-19T12:54:08.744Z,2.12
2019-03-19T12:56:36.736Z,1.90
2019-03-19T12:59:04.707Z,1.98
2019-03-19T13:01:32.856Z,2.00
2019-03-19T13:04:01.059Z,1.92
2019-03-19T13:06:29.028Z,2.15
2019-03-19T13:08:56.996Z,1.70
2019-03-19T13:11:25.061Z,2.62
2019-03-19T13:13:53.027Z,2.98
2019-03-19T13:16:20.983Z,2.20
2019-03-19T13:18:48.964Z,2.30
2019-03-19T13:21:16.919Z,2.40
2019-03-19T13:23:44.895Z,2.12
2019-03-19T13:26:12.852Z,2.05
2019-03-19T13:28:43.217Z,2.37
2019-03-19T13:31:10.595Z,2.37
2019-03-19T13:33:38.561Z,2.02
2019-03-19T13:36:06.531Z,1.90
2019-03-19T13:38:34.490Z,1.87
2019-03-19T13:41:02.468Z,2.55
2019-03-19T13:43:30.518Z,2.12
2019-03-19T13:45:58.479Z,1.87
2019-03-19T13:48:26.458Z,2.20
2019-03-19T13:50:54.433Z,1.77
2019-03-19T13:53:22.391Z,1.40
2019-03-19T13:55:50.386Z,2.50
2019-03-19T13:58:18.387Z,2.02
2019-03-19T14:00:55.294Z,2.02
2019-03-19T14:03:16.060Z,3.20
2019-03-19T14:05:44.035Z,2.92
2019-03-19T14:08:12.006Z,1.55
2019-03-19T14:10:39.971Z,1.55
2019-03-19T14:13:07.935Z,1.75
2019-03-19T14:15:35.903Z,1.95
2019-03-19T14:18:04.151Z,1.92
2019-03-19T14:20:32.111Z,2.00
2019-03-19T14:23:00.083Z,1.90
2019-03-19T14:25:28.070Z,1.87
2019-03-19T14:27:56.000Z,2.22
2019-03-19T14:30:24.744Z,2.33
2019-03-19T14:32:52.710Z,2.05
2019-03-19T14:35:20.683Z,2.20
2019-03-19T14:37:48.639Z,1.90
2019-03-19T14:40:18.253Z,1.98
2019-03-19T14:42:46.214Z,1.80
2019-03-19T14:45:14.752Z,1.60
2019-03-19T14:47:42.712Z,2.00
2019-03-19T14:50:12.319Z,1.70
2019-03-19T14:52:40.283Z,1.87
2019-03-19T14:55:08.288Z,1.50
2019-03-19T14:57:36.259Z,1.40
2019-03-19T15:00:05.971Z,2.30
2019-03-19T15:02:33.931Z,1.67
2019-03-19T15:05:01.896Z,2.22
2019-03-19T15:07:29.884Z,1.70
2019-03-19T15:09:57.847Z,1.80
2019-03-19T15:12:25.815Z,2.25
2019-03-19T15:14:53.775Z,1.60
2019-03-19T15:17:21.741Z,2.10
2019-03-19T15:19:49.723Z,1.80
2019-03-19T15:22:17.696Z,2.10
2019-03-19T15:24:45.660Z,1.82
2019-03-19T15:27:13.632Z,2.10
2019-03-19T15:29:41.611Z,1.90
2019-03-19T15:32:09.567Z,2.10
2019-03-19T15:34:37.672Z,1.70
2019-03-19T15:37:05.636Z,1.50
2019-03-19T15:39:33.607Z,2.00
2019-03-19T15:42:01.583Z,2.05
2019-03-19T15:44:29.547Z,1.92
2019-03-19T15:46:57.535Z,2.02
2019-03-19T15:49:25.502Z,1.95
2019-03-19T15:51:53.483Z,1.65
2019-03-19T15:54:21.500Z,2.17
2019-03-19T15:56:49.464Z,2.00
2019-03-19T15:59:17.423Z,1.77
2019-03-19T16:01:45.403Z,1.80
2019-03-19T16:04:13.368Z,1.80
2019-03-19T16:06:41.344Z,2.00
2019-03-19T16:09:09.316Z,1.80
2019-03-19T16:11:37.279Z,1.70
2019-03-19T16:14:05.240Z,2.33
2019-03-19T16:16:33.201Z,2.33
2019-03-19T16:19:01.203Z,2.40
2019-03-19T16:21:29.147Z,2.27
2019-03-19T16:23:57.143Z,2.62
2019-03-19T16:26:25.109Z,2.72
2019-03-19T16:28:53.078Z,2.20
2019-03-19T16:31:21.060Z,3.00
2019-03-19T16:33:49.787Z,2.60
2019-03-19T16:36:17.909Z,2.60
2019-03-19T16:38:45.971Z,2.22
2019-03-19T16:41:13.964Z,1.80
2019-03-19T16:43:42.015Z,2.27
2019-03-19T16:46:10.016Z,2.02
2019-03-19T16:48:37.991Z,2.33
2019-03-19T16:51:06.060Z,2.72
2019-03-19T16:53:34.019Z,2.85
2019-03-19T16:56:02.169Z,2.45
2019-03-19T16:58:30.183Z,2.65
2019-03-19T17:00:58.174Z,2.50
2019-03-19T17:03:26.178Z,2.98
2019-03-19T17:05:54.175Z,2.33
2019-03-19T17:08:22.224Z,2.90
2019-03-19T17:10:50.288Z,3.45
2019-03-19T17:13:18.268Z,3.98
2019-03-19T17:15:46.311Z,4.42
2019-03-19T17:18:14.351Z,4.25
2019-03-19T17:20:42.356Z,4.30
2019-03-19T17:23:10.353Z,3.90
2019-03-19T17:25:38.384Z,4.92
2019-03-19T17:28:06.367Z,4.58
2019-03-19T17:30:35.207Z,3.87
2019-03-19T17:33:05.747Z,3.90
2019-03-19T17:35:33.773Z,4.20
2019-03-19T17:38:01.812Z,5.17
2019-03-19T17:40:40.979Z,4.15
2019-03-19T17:43:02.338Z,3.27
2019-03-19T17:45:30.441Z,3.98
2019-03-19T17:47:58.404Z,2.98
2019-03-19T17:50:36.349Z,2.77
2019-03-19T17:53:04.387Z,2.65
2019-03-19T17:55:32.352Z,2.70
2019-03-19T17:58:00.506Z,2.45
2019-03-19T18:00:31.283Z,4.83
2019-03-19T18:02:59.256Z,2.40
2019-03-19T18:05:27.440Z,3.83
2019-03-19T18:07:55.413Z,3.42
2019-03-19T18:10:23.381Z,4.17
2019-03-19T18:12:51.361Z,5.37
2019-03-19T18:15:19.695Z,4.75
2019-03-19T18:17:47.660Z,4.72
2019-03-19T18:20:15.908Z,4.90
2019-03-19T18:22:43.877Z,6.55
2019-03-19T18:25:16.672Z,6.87
2019-03-19T18:27:44.654Z,4.72
2019-03-19T18:30:13.883Z,6.30
2019-03-19T18:32:41.862Z,6.35
2019-03-19T18:35:09.837Z,5.58
2019-03-19T18:37:37.803Z,2.95
2019-03-19T18:40:07.335Z,3.67
2019-03-19T18:42:35.374Z,3.83
2019-03-19T18:45:04.400Z,5.05
2019-03-19T18:47:32.391Z,4.40
2019-03-19T18:50:00.376Z,4.00
2019-03-19T18:52:28.344Z,3.42
2019-03-19T18:54:56.304Z,4.00
2019-03-19T18:57:24.471Z,3.67
2019-03-19T18:59:53.001Z,4.03
2019-03-19T19:02:20.974Z,3.87
2019-03-19T19:04:48.952Z,4.10
2019-03-19T19:07:16.958Z,5.35
2019-03-19T19:09:45.420Z,10.08
2019-03-19T19:12:13.431Z,4.33
2019-03-19T19:14:41.404Z,7.78
2019-03-19T19:17:09.365Z,4.22
2019-03-19T19:19:37.436Z,3.65
2019-03-19T19:22:05.397Z,3.17
2019-03-19T19:24:33.363Z,3.47
2019-03-19T19:27:01.348Z,5.53
2019-03-19T19:29:29.320Z,4.12
2019-03-19T19:31:57.385Z,5.95
2019-03-19T19:34:25.378Z,8.00
2019-03-19T19:36:53.348Z,5.00
2019-03-19T19:39:21.308Z,4.67
2019-03-19T19:41:49.293Z,4.75
2019-03-19T19:44:17.265Z,7.33
2019-03-19T19:46:45.234Z,7.80
2019-03-19T19:49:13.436Z,13.13
2019-03-19T19:51:41.440Z,11.45
2019-03-19T19:54:09.433Z,7.80
2019-03-19T19:56:37.499Z,9.53
2019-03-19T19:59:05.472Z,7.45
2019-03-19T20:01:33.428Z,3.60
2019-03-19T20:04:01.821Z,3.22
2019-03-19T20:06:29.863Z,2.80
2019-03-19T20:08:57.948Z,2.75
2019-03-19T20:11:25.993Z,2.90
2019-03-19T20:13:53.958Z,3.40
2019-03-19T20:16:21.931Z,4.67
2019-03-19T20:18:49.980Z,5.10
2019-03-19T20:21:17.947Z,7.75
2019-03-19T20:23:45.927Z,7.20
2019-03-19T20:26:13.951Z,7.67
2019-03-19T20:28:41.953Z,5.10
2019-03-19T20:31:09.907Z,4.35
2019-03-19T20:33:37.901Z,6.37
2019-03-19T20:36:05.871Z,10.58
2019-03-19T20:38:33.925Z,12.00
2019-03-19T20:41:01.945Z,11.90
2019-03-19T20:43:29.909Z,11.93
2019-03-19T20:45:57.904Z,12.25
2019-03-19T20:48:25.868Z,15.55
2019-03-19T20:50:54.304Z,17.75
2019-03-19T20:53:22.285Z,15.28
2019-03-19T20:55:50.261Z,14.13
2019-03-19T20:58:18.246Z,13.62
2019-03-19T21:00:46.207Z,10.28
2019-03-19T21:03:14.169Z,10.23
2019-03-19T21:05:42.141Z,11.10
2019-03-19T21:08:10.108Z,9.53
2019-03-19T21:10:38.389Z,7.92
2019-03-19T21:13:06.370Z,9.78
2019-03-19T21:15:34.332Z,10.50
2019-03-19T21:18:02.330Z,10.88
2019-03-19T21:20:30.295Z,12.05
2019-03-19T21:22:58.259Z,11.12
2019-03-19T21:25:26.239Z,12.25
2019-03-19T21:27:54.224Z,10.40
2019-03-19T21:30:23.814Z,9.80
2019-03-19T21:32:51.826Z,11.00
2019-03-19T21:35:21.449Z,10.20
2019-03-19T21:37:49.415Z,10.93
2019-03-19T21:40:17.396Z,11.88
2019-03-19T21:42:46.123Z,12.65
2019-03-19T21:45:17.752Z,13.05
2019-03-19T21:47:45.707Z,12.20
2019-03-19T21:50:17.248Z,12.93
2019-03-19T21:52:45.222Z,13.48
2019-03-19T21:55:14.372Z,13.00
2019-03-19T21:57:42.475Z,12.55
2019-03-19T22:00:14.194Z,11.38
2019-03-19T22:02:42.156Z,6.05
2019-03-19T22:05:10.132Z,7.17
2019-03-19T22:07:38.096Z,5.60
2019-03-19T22:10:10.635Z,7.42
2019-03-19T22:12:38.595Z,5.30
2019-03-19T22:15:13.689Z,3.95
2019-03-19T22:17:41.648Z,3.92
2019-03-19T22:20:09.620Z,3.17
2019-03-19T22:22:37.605Z,3.90
2019-03-19T22:25:07.032Z,3.02
2019-03-19T22:27:35.000Z,2.85
2019-03-19T22:30:02.969Z,3.30
2019-03-19T22:32:30.928Z,2.72
2019-03-19T22:34:58.904Z,2.67
2019-03-19T22:37:26.879Z,3.67
2019-03-19T22:39:54.852Z,3.60
2019-03-19T22:42:22.819Z,3.47
2019-03-19T22:44:50.783Z,3.62
2019-03-19T22:47:18.765Z,4.40
2019-03-19T22:49:46.727Z,3.92
2019-03-19T22:52:14.712Z,3.65
2019-03-19T22:54:42.695Z,2.95
2019-03-19T22:57:10.668Z,3.72
2019-03-19T22:59:38.636Z,3.80
2019-03-19T23:02:06.608Z,3.47
2019-03-19T23:04:34.580Z,3.77
2019-03-19T23:07:02.628Z,3.70
2019-03-19T23:09:30.588Z,4.10
2019-03-19T23:11:58.561Z,4.40
2019-03-19T23:14:26.536Z,5.03
2019-03-19T23:16:54.503Z,5.67
2019-03-19T23:19:22.521Z,5.25
2019-03-19T23:21:50.544Z,5.42
2019-03-19T23:24:18.506Z,5.70
2019-03-19T23:26:46.481Z,4.97
2019-03-19T23:29:14.444Z,5.00
2019-03-19T23:31:42.411Z,6.05
2019-03-19T23:34:10.377Z,5.25
2019-03-19T23:36:38.343Z,5.65
2019-03-19T23:39:06.602Z,5.78
2019-03-19T23:41:34.576Z,6.50
2019-03-19T23:44:02.899Z,5.40
2019-03-19T23:46:30.937Z,5.58
2019-03-19T23:48:58.928Z,5.05
2019-03-19T23:51:26.964Z,6.05
2019-03-19T23:53:54.940Z,5.70
2019-03-19T23:56:22.917Z,6.65
2019-03-19T23:58:50.899Z,6.28
